Overview Statistics Trail Chart Weather Telemetry Raw packets
 

This is the latest recevied weather packets stored in our database for station/object N1SU-13. If no packets are shown the sender has not sent any weather packets the latest 10 day(s).

<< 51 52 53 54 55 56 57 >>
Time Temp. Humidity Pressure Rain* Wind** Luminosity Snow
1787888876 17.78° C 68% 1016.5 hPa - - - -
1787888321 18.33° C 67% 1016.2 hPa - - - -
1787887722 18.33° C 66% 1016.2 hPa - - - -
1787887098 18.89° C 65% 1016.1 hPa - - - -
1787886537 18.89° C 64% 1016 hPa - - - -
1787885849 19.44° C 63% 1015.8 hPa - - - -
1787885222 20° C 62% 1015.8 hPa - - - -
1787884526 20.56° C 60% 1015.7 hPa - - - -
1787883843 21.67° C 57% 1015.5 hPa - - - -
1787883183 22.78° C 54% 1015.3 hPa - - - -
1787882524 23.89° C 49% 1015.3 hPa - - - -
1787881841 25° C 46% 1015.2 hPa - - - -
1787881269 24.44° C 48% 1015.2 hPa - - - -
1787880667 23.89° C 52% 1015.3 hPa - - - -
1787879972 23.89° C 52% 1015.3 hPa - - - -
1787879343 23.89° C 52% 1015.2 hPa - - - -
1787878759 23.33° C 52% 1015.1 hPa - - - -
1787878145 23.33° C 53% 1015.1 hPa - - - -
1787877520 23.33° C 54% 1015.2 hPa - - - -
1787876845 22.78° C 55% 1015.2 hPa - - - -
1787876229 22.22° C 56% 1015.2 hPa - - - -
1787875588 21.67° C 58% 1015.3 hPa - - - -
1787874999 21.67° C 57% 1015.3 hPa - - - -
1787874341 21.67° C 59% 1015.3 hPa - - - -
1787873685 21.11° C 60% 1015.5 hPa - - - -

* Rain since midnight (hover to see other rain measurements)
** Current wind speed in m/s (hover to see current wind gust speed)